Portada
METAR-TAF:

METAR-TAF

Aeroports :

Avinyó, França

latitud: 43-54-26N, longitud: 004-54-07E, altitud: 38 m

Observació

L'informe es va fer fa 39 minuts, a les 20:00 UTC
Vent calma
Temperatura -1°C
Humitat 74%
Pressió 1004 hPa
Visibilitat 10 km o més
sense núvols per sota de 1500 mi sense presència de cumulonimbus.

METAR: LFMV 222000Z AUTO 00000KT CAVOK M01/M05 Q1004 NOSIG

Hora: 21:39 (20:39 UTC)

Pronòstic

L'informe es va fer fa 6 hores i 39 minuts, a les 14:00 UTC
Pronòstic vàlid del 22 a les 15 UTC al 23 a les 15 UTC
Vent 5 kt amb direcció variable
Visibilitat 10 km o més
sense núvols per sota de 1500 mi sense presència de cumulonimbus.

TAF: LFMV 221400Z 2215/2315 VRB05KT CAVOK

Observacions i pronòstics meteorològics de més de 4000 aeroports (METAR i TAF).

Les estacions disponibles són els punts grocs i vermells al mapa.

Posi el ratolí al punt desitjat per veure el nom de l'estació.

Feu clic per veure les observacions i els pronòstics meteorològics.

Per canviar el mapa: feu clic els botons verds amb una creu de color negre per apropar; al botó verd amb un guió per allunyar la imatge; o en les fletxes verdes per a mapes adjacents.


METAR-TAF: